Time;durP1;ratioP1;P1;durP2;ratioP2;P2;SDS_P1;SDS_P2;PMS_P1;PMS_P2;Temp;Humidity;BMP_temperature;BMP_pressure;BME280_temperature;BME280_humidity;BME280_pressure;Samples;Min_cycle;Max_cycle;Signal;HPM_P1;HPM_P2
2022/08/24 00:01:48;;;;;;;3.33;3.00;;;17.40;99.90;;;;;;5010367;28;20462;-66
2022/08/24 00:04:15;;;;;;;2.87;2.67;;;17.40;99.90;;;;;;5009315;28;20462;-66
2022/08/24 00:06:42;;;;;;;3.83;3.30;;;17.40;99.90;;;;;;5010127;28;20473;-65
2022/08/24 00:09:10;;;;;;;3.80;3.50;;;17.40;99.90;;;;;;5009949;28;20486;-66
2022/08/24 00:11:36;;;;;;;3.20;3.00;;;17.30;99.90;;;;;;5009744;28;20559;-66
2022/08/24 00:14:03;;;;;;;3.20;2.90;;;17.30;99.90;;;;;;5009488;28;20490;-66
2022/08/24 00:16:30;;;;;;;3.23;2.93;;;17.30;99.90;;;;;;5009706;28;20462;-64
2022/08/24 00:18:56;;;;;;;3.20;2.83;;;17.30;99.90;;;;;;5009796;28;20488;-65
2022/08/24 00:21:24;;;;;;;5.20;3.00;;;17.20;99.90;;;;;;5009959;28;20520;-66
2022/08/24 00:23:51;;;;;;;2.93;2.73;;;17.20;99.90;;;;;;5008176;28;20457;-65
2022/08/24 00:26:19;;;;;;;3.20;2.90;;;17.20;99.90;;;;;;5010107;28;20466;-66
2022/08/24 00:28:46;;;;;;;3.20;2.90;;;17.20;99.90;;;;;;5009070;28;20490;-66
2022/08/24 00:31:12;;;;;;;3.30;3.10;;;17.10;99.90;;;;;;5009981;28;20461;-66
2022/08/24 00:33:40;;;;;;;3.20;2.93;;;17.10;99.90;;;;;;5008714;28;20497;-64
2022/08/24 00:36:08;;;;;;;4.00;2.93;;;17.10;99.90;;;;;;5009868;28;20473;-66
2022/08/24 00:38:36;;;;;;;3.30;3.00;;;17.10;99.90;;;;;;5009292;28;20485;-66
2022/08/24 00:41:04;;;;;;;3.10;2.90;;;17.10;99.90;;;;;;5009227;28;20540;-66
2022/08/24 00:43:32;;;;;;;3.20;2.90;;;17.00;99.90;;;;;;5009232;28;20468;-66
2022/08/24 00:46:10;;;;;;;3.37;3.07;;;17.00;99.90;;;;;;5008933;28;20557;-66
2022/08/24 00:48:44;;;;;;;4.38;3.22;;;17.00;99.90;;;;;;4973890;28;1024759;-65
2022/08/24 00:51:16;;;;;;;3.30;3.00;;;17.00;99.90;;;;;;5010545;28;20627;-66
2022/08/24 00:53:48;;;;;;;3.60;3.10;;;16.90;99.90;;;;;;5009098;28;20485;-65
2022/08/24 00:56:20;;;;;;;2.77;2.57;;;16.90;99.90;;;;;;5009616;28;20469;-65
2022/08/24 00:58:52;;;;;;;3.17;2.93;;;16.90;99.90;;;;;;5009868;28;20485;-66
2022/08/24 01:01:19;;;;;;;3.27;2.97;;;16.90;99.90;;;;;;5010361;28;20465;-64
2022/08/24 01:03:46;;;;;;;3.90;2.93;;;16.90;99.90;;;;;;5009189;28;20457;-65
2022/08/24 01:06:13;;;;;;;3.23;3.03;;;16.90;99.90;;;;;;5010293;28;20962;-66
2022/08/24 01:08:40;;;;;;;4.40;3.17;;;16.90;99.90;;;;;;5009813;28;20486;-65
2022/08/24 01:11:11;;;;;;;2.87;2.67;;;16.80;99.90;;;;;;5009861;28;21010;-66
2022/08/24 01:13:39;;;;;;;3.07;2.87;;;16.80;99.90;;;;;;5009580;28;20525;-64
2022/08/24 01:16:08;;;;;;;3.33;3.07;;;16.80;99.90;;;;;;5009964;28;20465;-65
2022/08/24 01:18:50;;;;;;;3.33;3.03;;;16.80;99.90;;;;;;5010105;28;20543;-65
2022/08/24 01:21:19;;;;;;;3.40;3.03;;;16.80;99.90;;;;;;5010636;28;20548;-65
2022/08/24 01:23:49;;;;;;;3.23;2.93;;;16.70;99.90;;;;;;5009331;28;20458;-65
2022/08/24 01:26:19;;;;;;;3.07;2.80;;;16.70;99.90;;;;;;5010518;28;20465;-66
2022/08/24 01:28:49;;;;;;;2.97;2.77;;;16.70;99.90;;;;;;5009392;28;21040;-65
2022/08/24 01:31:19;;;;;;;3.67;3.33;;;16.70;99.90;;;;;;5010203;28;20520;-66
2022/08/24 01:33:49;;;;;;;2.93;2.70;;;16.60;99.90;;;;;;5009205;28;20496;-65
2022/08/24 01:36:25;;;;;;;3.27;3.00;;;16.60;99.90;;;;;;5013975;28;20469;-65
2022/08/24 01:38:54;;;;;;;3.40;3.10;;;16.60;99.90;;;;;;5013540;28;20489;-66
2022/08/24 01:41:21;;;;;;;3.97;3.30;;;16.60;99.90;;;;;;5013855;28;20461;-65
2022/08/24 01:43:47;;;;;;;3.00;2.77;;;16.50;99.90;;;;;;5012980;28;20466;-65
2022/08/24 01:46:15;;;;;;;3.33;2.90;;;16.50;99.90;;;;;;5013485;28;20473;-65
2022/08/24 01:48:42;;;;;;;4.30;2.90;;;16.50;99.90;;;;;;5013440;28;20543;-66
2022/08/24 01:51:08;;;;;;;4.83;2.93;;;16.50;99.90;;;;;;5013887;28;20470;-64
2022/08/24 01:53:35;;;;;;;3.73;3.03;;;16.50;99.90;;;;;;5012841;28;20544;-65
2022/08/24 01:56:04;;;;;;;3.77;3.17;;;16.40;99.90;;;;;;5013596;28;20485;-65
2022/08/24 01:58:31;;;;;;;3.50;3.20;;;16.40;99.90;;;;;;5013095;28;20580;-65
2022/08/24 02:00:58;;;;;;;3.50;3.20;;;16.40;99.90;;;;;;5013753;28;20465;-65
2022/08/24 02:03:25;;;;;;;3.40;3.10;;;16.30;99.90;;;;;;5013209;28;20828;-64
2022/08/24 02:05:52;;;;;;;3.77;3.47;;;16.30;99.90;;;;;;5012963;28;20572;-65
2022/08/24 02:08:18;;;;;;;3.53;3.23;;;16.30;99.90;;;;;;5013419;28;20557;-66
2022/08/24 02:10:45;;;;;;;3.13;2.87;;;16.20;99.90;;;;;;5012986;28;20473;-65
2022/08/24 02:13:14;;;;;;;3.10;2.90;;;16.20;99.90;;;;;;5013440;28;20544;-63
2022/08/24 02:15:40;;;;;;;3.40;3.10;;;16.20;99.90;;;;;;5012273;28;20505;-64
2022/08/24 02:18:09;;;;;;;3.33;2.80;;;16.10;99.90;;;;;;5013257;28;20486;-66
2022/08/24 02:20:36;;;;;;;2.80;2.60;;;16.10;99.90;;;;;;5013444;28;20465;-65
2022/08/24 02:23:05;;;;;;;3.30;3.00;;;16.10;99.90;;;;;;5013054;28;20516;-65
2022/08/24 02:25:32;;;;;;;3.17;2.97;;;16.00;99.90;;;;;;5012600;28;20462;-64
2022/08/24 02:28:00;;;;;;;2.63;2.43;;;16.00;99.90;;;;;;5012572;28;20658;-65
2022/08/24 02:30:30;;;;;;;4.33;3.30;;;16.00;99.90;;;;;;5013310;28;20842;-66
2022/08/24 02:32:57;;;;;;;3.50;3.20;;;16.00;99.90;;;;;;5013036;28;20490;-66
2022/08/24 02:35:25;;;;;;;2.93;2.73;;;16.00;99.90;;;;;;5011996;28;20486;-65
2022/08/24 02:37:52;;;;;;;3.00;2.70;;;16.00;99.90;;;;;;5012533;28;20816;-64
2022/08/24 02:40:18;;;;;;;3.80;3.50;;;15.90;99.90;;;;;;5012559;28;21029;-65
2022/08/24 02:42:45;;;;;;;3.50;3.20;;;15.90;99.90;;;;;;5012715;28;20472;-66
2022/08/24 02:45:12;;;;;;;3.50;3.20;;;15.90;99.90;;;;;;5011968;28;20557;-65
2022/08/24 02:47:40;;;;;;;3.13;2.90;;;15.90;99.90;;;;;;5011451;28;20482;-65
2022/08/24 02:50:11;;;;;;;3.97;3.20;;;15.90;99.90;;;;;;5012718;28;20469;-65
2022/08/24 02:52:39;;;;;;;3.17;2.97;;;15.80;99.90;;;;;;5012148;28;20458;-65
2022/08/24 02:55:07;;;;;;;3.40;3.07;;;15.80;99.90;;;;;;5011888;28;21022;-65
2022/08/24 02:57:34;;;;;;;2.70;2.50;;;15.80;99.90;;;;;;5012149;28;20485;-65
2022/08/24 03:00:01;;;;;;;3.00;2.80;;;15.70;99.90;;;;;;5012445;28;20466;-65
2022/08/24 03:02:27;;;;;;;3.30;3.00;;;15.70;99.90;;;;;;5012528;28;20861;-64
2022/08/24 03:04:55;;;;;;;3.30;3.00;;;15.70;99.90;;;;;;5011136;28;20465;-65
2022/08/24 03:07:22;;;;;;;3.60;3.30;;;15.70;99.90;;;;;;5012383;28;20732;-65
2022/08/24 03:09:49;;;;;;;3.83;3.50;;;15.60;99.90;;;;;;5011519;28;20812;-66
2022/08/24 03:12:16;;;;;;;3.40;3.10;;;15.70;99.90;;;;;;5012524;28;20846;-66
2022/08/24 03:14:43;;;;;;;3.43;3.20;;;15.60;99.90;;;;;;5011180;28;21013;-65
2022/08/24 03:17:10;;;;;;;3.30;3.00;;;15.60;99.90;;;;;;5011996;28;20482;-66
2022/08/24 03:19:37;;;;;;;3.93;3.37;;;15.50;99.90;;;;;;5011836;28;20485;-65
2022/08/24 03:22:05;;;;;;;3.97;3.60;;;15.50;99.90;;;;;;5011770;28;20535;-65
2022/08/24 03:24:32;;;;;;;3.73;3.30;;;15.50;99.90;;;;;;5011347;28;20462;-65
2022/08/24 03:26:59;;;;;;;3.97;3.63;;;15.50;99.90;;;;;;5011971;28;20461;-65
2022/08/24 03:29:26;;;;;;;4.20;3.73;;;15.40;99.90;;;;;;5011401;28;20972;-65
2022/08/24 03:31:55;;;;;;;3.43;3.13;;;15.40;99.90;;;;;;5011496;28;20527;-65
2022/08/24 03:34:23;;;;;;;3.97;3.27;;;15.40;99.90;;;;;;5009632;28;20481;-65
2022/08/24 03:36:49;;;;;;;4.90;4.40;;;15.40;99.90;;;;;;5010515;28;20469;-65
2022/08/24 03:39:17;;;;;;;3.60;3.30;;;15.40;99.90;;;;;;5010966;28;20465;-65
2022/08/24 03:41:44;;;;;;;3.20;2.90;;;15.40;99.90;;;;;;5010943;28;20840;-65
2022/08/24 03:44:11;;;;;;;3.90;2.97;;;15.30;99.90;;;;;;5010694;28;20880;-65
2022/08/24 03:46:38;;;;;;;3.50;3.20;;;15.30;99.90;;;;;;5010148;28;20459;-65
2022/08/24 03:49:07;;;;;;;3.30;3.00;;;15.30;99.90;;;;;;5009903;28;20490;-65
2022/08/24 03:51:35;;;;;;;3.40;3.10;;;15.30;99.90;;;;;;5083410;22;21103;-68
2022/08/24 03:54:03;;;;;;;3.40;3.13;;;15.30;99.90;;;;;;5009995;28;20985;-68
2022/08/24 03:56:32;;;;;;;3.43;3.00;;;15.20;99.90;;;;;;5011672;28;20828;-67
2022/08/24 03:58:58;;;;;;;4.67;3.47;;;15.20;99.90;;;;;;5010036;28;20478;-68
2022/08/24 04:01:25;;;;;;;4.00;3.30;;;15.20;99.90;;;;;;5011326;28;20469;-67
2022/08/24 04:03:53;;;;;;;5.53;4.00;;;15.10;99.90;;;;;;5010555;28;20465;-68
2022/08/24 04:06:21;;;;;;;3.50;3.20;;;15.10;99.90;;;;;;5011400;28;20552;-67
2022/08/24 04:08:49;;;;;;;3.50;3.20;;;15.10;99.90;;;;;;5011262;28;20482;-67
2022/08/24 04:11:18;;;;;;;3.73;3.43;;;15.10;99.90;;;;;;5010803;28;20469;-67
2022/08/24 04:13:48;;;;;;;3.80;3.50;;;15.10;99.90;;;;;;5009785;28;20459;-67
2022/08/24 04:16:17;;;;;;;3.33;3.10;;;15.00;99.90;;;;;;5010684;28;20225;-67
2022/08/24 04:18:44;;;;;;;3.27;3.07;;;15.00;99.90;;;;;;5011564;28;20939;-67
2022/08/24 04:21:19;;;;;;;3.00;2.80;;;15.00;99.90;;;;;;5011528;28;20470;-67
2022/08/24 04:23:46;;;;;;;4.10;3.77;;;15.00;99.90;;;;;;5091867;23;20493;-68
2022/08/24 04:26:13;;;;;;;3.60;3.30;;;15.00;99.90;;;;;;5011128;28;20541;-68
2022/08/24 04:28:40;;;;;;;4.80;3.23;;;15.00;99.90;;;;;;5025569;28;20481;-68
2022/08/24 04:31:08;;;;;;;3.70;3.30;;;15.00;99.90;;;;;;5029542;28;20452;-68
2022/08/24 04:33:35;;;;;;;3.70;3.40;;;14.90;99.90;;;;;;5028295;28;20473;-68
2022/08/24 04:36:06;;;;;;;4.67;3.50;;;15.00;99.90;;;;;;5028426;28;20919;-68
2022/08/24 04:38:32;;;;;;;4.53;3.80;;;14.90;99.90;;;;;;5029595;28;20899;-68
2022/08/24 04:40:59;;;;;;;3.73;3.30;;;14.90;99.90;;;;;;5029538;28;20461;-68
2022/08/24 04:43:26;;;;;;;4.00;3.30;;;15.00;99.90;;;;;;5029471;28;20559;-68
2022/08/24 04:45:53;;;;;;;4.23;3.93;;;15.00;99.90;;;;;;5029555;28;20500;-68
2022/08/24 04:48:21;;;;;;;3.97;3.67;;;15.00;99.90;;;;;;5030592;28;20842;-68
2022/08/24 04:50:48;;;;;;;3.53;3.23;;;15.00;99.90;;;;;;5030453;28;20944;-68
2022/08/24 04:53:16;;;;;;;4.40;4.00;;;15.00;99.90;;;;;;5030721;28;20514;-69
2022/08/24 04:55:45;;;;;;;3.57;3.27;;;15.00;99.90;;;;;;5030230;28;20464;-68
2022/08/24 04:58:12;;;;;;;4.40;3.70;;;15.00;99.90;;;;;;5030191;28;20556;-68
2022/08/24 05:00:39;;;;;;;3.53;3.13;;;15.00;99.90;;;;;;5030551;28;20468;-68
2022/08/24 05:03:06;;;;;;;3.83;3.53;;;15.00;99.90;;;;;;5030173;28;20968;-68
2022/08/24 05:05:34;;;;;;;3.87;3.57;;;15.00;99.90;;;;;;5030221;28;20510;-69
2022/08/24 05:08:01;;;;;;;4.80;3.90;;;15.10;99.90;;;;;;5030053;28;20485;-69
2022/08/24 05:10:28;;;;;;;4.30;3.77;;;15.20;99.90;;;;;;5033961;28;20487;-69
2022/08/24 05:12:54;;;;;;;3.73;3.33;;;15.20;99.90;;;;;;5034442;28;20460;-68
2022/08/24 05:15:21;;;;;;;3.97;3.30;;;15.30;99.90;;;;;;5033549;28;20860;-68
2022/08/24 05:17:49;;;;;;;4.00;3.70;;;15.30;99.90;;;;;;5034191;28;20863;-68
2022/08/24 05:20:16;;;;;;;3.87;3.57;;;15.30;99.90;;;;;;5033719;28;20984;-70
2022/08/24 05:22:44;;;;;;;4.23;3.93;;;15.40;99.90;;;;;;5034033;28;20468;-70
2022/08/24 05:25:12;;;;;;;4.70;3.67;;;15.40;99.90;;;;;;5033869;28;20480;-69
2022/08/24 05:27:38;;;;;;;4.03;3.60;;;15.40;99.90;;;;;;5034262;28;20515;-68
2022/08/24 05:30:06;;;;;;;4.20;3.67;;;15.50;99.90;;;;;;5034493;28;20465;-69
2022/08/24 05:32:33;;;;;;;4.10;3.70;;;15.50;99.90;;;;;;5034495;28;20468;-68
2022/08/24 05:35:03;;;;;;;4.53;4.13;;;15.60;99.90;;;;;;5034155;28;20496;-69
2022/08/24 05:37:30;;;;;;;4.23;3.83;;;15.70;99.90;;;;;;5034858;28;20588;-69
2022/08/24 05:39:58;;;;;;;5.87;4.20;;;15.70;99.90;;;;;;5034449;28;20811;-69
2022/08/24 05:42:25;;;;;;;4.23;3.83;;;15.80;99.90;;;;;;5034624;28;20464;-69
2022/08/24 05:44:51;;;;;;;5.30;4.70;;;15.90;99.90;;;;;;5033761;28;21026;-68
2022/08/24 05:47:18;;;;;;;4.87;4.43;;;15.90;99.90;;;;;;5034653;28;21074;-68
2022/08/24 05:49:45;;;;;;;4.83;4.20;;;16.00;99.90;;;;;;5033392;28;20526;-70
2022/08/24 05:52:12;;;;;;;4.43;4.03;;;16.10;99.90;;;;;;5033803;28;20465;-69
2022/08/24 05:54:39;;;;;;;5.03;4.00;;;16.20;99.90;;;;;;5032898;28;20491;-69
2022/08/24 05:57:07;;;;;;;4.07;3.73;;;16.30;99.90;;;;;;5034086;28;20468;-68
2022/08/24 05:59:34;;;;;;;4.50;4.10;;;16.40;99.90;;;;;;5033955;28;20472;-68
2022/08/24 06:02:01;;;;;;;4.33;3.80;;;16.40;99.90;;;;;;5021823;28;20473;-68
2022/08/24 06:04:36;;;;;;;3.90;3.60;;;16.50;99.90;;;;;;5028182;28;20453;-69
2022/08/24 06:07:08;;;;;;;4.53;4.10;;;16.60;99.90;;;;;;5033225;28;20464;-69
2022/08/24 06:09:34;;;;;;;5.23;3.47;;;16.70;99.90;;;;;;5019753;28;20492;-68
2022/08/24 06:12:01;;;;;;;4.30;4.00;;;16.80;99.90;;;;;;5032945;28;20550;-68
2022/08/24 06:14:29;;;;;;;4.23;3.83;;;16.90;99.90;;;;;;5032530;28;20495;-70
2022/08/24 06:16:56;;;;;;;5.00;4.60;;;16.90;99.90;;;;;;5032113;28;20468;-70
2022/08/24 06:19:25;;;;;;;4.03;3.57;;;17.00;99.90;;;;;;5031779;28;20476;-70
2022/08/24 06:21:54;;;;;;;4.33;3.93;;;17.10;99.90;;;;;;5030994;28;20531;-70
2022/08/24 06:27:19;;;;;;;4.30;3.70;;;17.20;99.90;;;;;;5029587;28;20479;-69
2022/08/24 06:27:20;;;;;;;3.77;3.43;;;17.30;99.90;;;;;;5033336;28;20916;-69
2022/08/24 06:29:49;;;;;;;3.93;3.47;;;17.40;99.90;;;;;;5012119;28;20480;-69
2022/08/24 06:32:16;;;;;;;4.03;3.70;;;17.50;99.90;;;;;;5012862;28;20469;-70
2022/08/24 06:34:42;;;;;;;4.10;3.70;;;17.70;99.90;;;;;;5012315;28;20489;-69
2022/08/24 06:37:09;;;;;;;4.07;3.77;;;17.80;99.90;;;;;;5013627;28;20485;-70
2022/08/24 06:39:36;;;;;;;3.80;3.50;;;17.90;99.90;;;;;;5013020;28;20458;-70
2022/08/24 06:42:04;;;;;;;4.53;3.67;;;18.00;99.90;;;;;;5012849;28;20596;-69
2022/08/24 06:44:31;;;;;;;3.80;3.50;;;18.20;99.90;;;;;;5012794;28;21016;-72
2022/08/24 06:46:59;;;;;;;5.20;4.70;;;18.30;99.90;;;;;;5012987;28;20509;-71
2022/08/24 06:49:26;;;;;;;3.67;3.37;;;18.40;99.90;;;;;;5014226;28;20833;-70
2022/08/24 06:51:53;;;;;;;4.57;3.07;;;18.60;99.90;;;;;;5012906;28;20465;-70
2022/08/24 06:54:20;;;;;;;4.47;3.40;;;18.70;99.90;;;;;;5011925;28;20568;-70
2022/08/24 06:56:47;;;;;;;3.13;2.73;;;18.90;99.90;;;;;;5013148;28;21032;-70
2022/08/24 06:59:14;;;;;;;5.20;3.10;;;19.00;99.90;;;;;;5014112;28;20464;-71
2022/08/24 07:01:46;;;;;;;3.10;2.80;;;19.20;99.90;;;;;;5012524;28;20466;-70
2022/08/24 07:04:14;;;;;;;3.77;3.47;;;19.40;99.90;;;;;;5012011;28;20454;-70
2022/08/24 07:06:45;;;;;;;4.83;2.87;;;19.50;99.90;;;;;;5011994;28;20516;-70
2022/08/24 07:09:23;;;;;;;3.07;2.80;;;19.60;99.90;;;;;;5013048;28;21015;-69
2022/08/24 07:11:50;;;;;;;3.27;2.97;;;19.70;99.90;;;;;;5011237;28;20479;-70
2022/08/24 07:14:18;;;;;;;3.23;2.93;;;19.80;99.90;;;;;;5013742;28;20490;-69
2022/08/24 07:16:44;;;;;;;3.43;3.13;;;20.00;99.90;;;;;;5013522;28;20458;-70
2022/08/24 07:19:14;;;;;;;3.47;3.17;;;20.10;99.90;;;;;;5012629;28;20488;-69
2022/08/24 07:21:42;;;;;;;2.87;2.67;;;20.10;99.90;;;;;;5012332;28;20834;-69
2022/08/24 07:24:09;;;;;;;2.83;2.63;;;20.30;99.90;;;;;;5012871;28;20569;-70
2022/08/24 07:26:38;;;;;;;3.17;2.87;;;20.40;99.90;;;;;;5012601;28;20466;-70
2022/08/24 07:29:09;;;;;;;2.77;2.57;;;20.50;99.90;;;;;;5014156;28;20502;-67
2022/08/24 07:31:39;;;;;;;2.80;2.60;;;20.60;99.90;;;;;;5011778;28;20958;-67
2022/08/24 07:34:08;;;;;;;3.00;2.70;;;20.80;99.90;;;;;;5024499;28;20462;-70
2022/08/24 07:36:36;;;;;;;2.87;2.63;;;20.90;99.90;;;;;;5011783;28;20890;-70
2022/08/24 07:39:05;;;;;;;3.50;3.20;;;21.00;99.90;;;;;;5024458;28;20485;-70
2022/08/24 07:41:39;;;;;;;3.20;2.90;;;21.10;99.90;;;;;;5031701;28;20964;-70
2022/08/24 07:44:05;;;;;;;3.80;2.47;;;21.20;99.90;;;;;;5028823;28;20950;-67
2022/08/24 07:46:32;;;;;;;3.00;2.70;;;21.30;99.90;;;;;;5029297;28;20493;-71
2022/08/24 07:48:59;;;;;;;4.90;3.00;;;21.40;99.90;;;;;;5018555;28;20837;-71
2022/08/24 07:51:27;;;;;;;2.60;2.40;;;21.50;99.90;;;;;;5012467;28;20578;-70
2022/08/24 07:53:54;;;;;;;2.70;2.47;;;21.70;99.70;;;;;;5014439;28;20807;-70
2022/08/24 07:56:22;;;;;;;3.63;2.90;;;21.80;99.90;;;;;;5031024;28;20491;-70
2022/08/24 07:58:49;;;;;;;6.87;3.20;;;21.90;99.90;;;;;;5018723;28;20478;-70
2022/08/24 08:01:16;;;;;;;4.07;3.30;;;22.10;99.90;;;;;;5011678;28;20468;-70
2022/08/24 08:03:43;;;;;;;4.10;2.80;;;22.20;99.90;;;;;;5011973;28;20561;-70
2022/08/24 08:06:10;;;;;;;3.63;3.30;;;22.30;99.90;;;;;;5011370;28;20491;-69
2022/08/24 08:08:39;;;;;;;4.40;2.90;;;22.40;99.90;;;;;;5011453;28;20477;-70
2022/08/24 08:11:06;;;;;;;4.43;3.43;;;22.60;99.90;;;;;;5011924;28;20494;-71
2022/08/24 08:13:35;;;;;;;3.83;2.70;;;22.70;99.60;;;;;;5012299;28;20475;-70
2022/08/24 08:16:04;;;;;;;3.27;2.57;;;22.90;99.90;;;;;;5030267;28;20483;-70
2022/08/24 08:18:31;;;;;;;4.00;3.00;;;22.90;98.80;;;;;;5020898;28;20541;-70
2022/08/24 08:20:58;;;;;;;3.30;3.00;;;23.10;99.10;;;;;;5010883;28;20554;-70
2022/08/24 08:26:14;;;;;;;3.13;2.83;;;23.20;99.70;;;;;;5011586;28;20493;-69
2022/08/24 08:28:42;;;;;;;4.10;2.73;;;23.30;99.30;;;;;;5011473;28;20851;-69
2022/08/24 08:31:09;;;;;;;2.73;2.53;;;23.30;97.90;;;;;;5022887;28;20466;-70
2022/08/24 08:33:35;;;;;;;3.50;2.90;;;23.30;97.70;;;;;;5028809;28;20467;-71
2022/08/24 08:36:06;;;;;;;3.10;2.60;;;23.40;97.60;;;;;;5010726;28;20487;-71
2022/08/24 08:38:33;;;;;;;2.23;2.03;;;23.50;97.30;;;;;;5012951;28;20490;-68
2022/08/24 08:41:21;;;;;;;2.57;2.37;;;23.60;97.40;;;;;;5010022;28;20909;-69
2022/08/24 08:43:59;;;;;;;2.70;2.47;;;23.70;97.60;;;;;;4958549;28;20498;-71
2022/08/24 08:46:40;;;;;;;2.83;2.63;;;23.90;98.10;;;;;;5010853;28;20468;-69
2022/08/24 08:49:31;;;;;;;2.60;2.40;;;24.00;97.90;;;;;;5013298;28;20484;-71
2022/08/24 08:52:32;;;;;;;2.20;2.00;;;24.20;96.80;;;;;;5008984;28;20833;-68
2022/08/24 08:55:15;;;;;;;2.37;2.17;;;24.30;96.80;;;;;;5012224;28;20860;-71
2022/08/24 08:57:53;;;;;;;2.50;2.30;;;24.40;95.90;;;;;;5012328;28;20480;-68
2022/08/24 09:00:24;;;;;;;2.93;2.07;;;24.40;95.30;;;;;;5010186;28;20471;-69
2022/08/24 09:03:05;;;;;;;2.63;2.20;;;24.60;95.50;;;;;;5009909;28;20553;-71
2022/08/24 09:05:59;;;;;;;2.37;2.17;;;24.70;96.30;;;;;;5012492;28;20461;-68
2022/08/24 09:08:39;;;;;;;2.67;2.40;;;24.80;94.50;;;;;;5012374;28;20476;-68
2022/08/24 09:11:14;;;;;;;2.00;1.90;;;24.90;94.80;;;;;;5009552;28;20469;-68
2022/08/24 09:14:09;;;;;;;2.20;2.10;;;25.10;94.10;;;;;;5024387;28;20518;-68
2022/08/24 09:16:54;;;;;;;2.23;2.07;;;25.20;94.20;;;;;;5030013;28;20488;-70
2022/08/24 09:19:45;;;;;;;2.70;2.50;;;25.40;95.30;;;;;;5027141;28;20611;-70
2022/08/24 09:22:14;;;;;;;1.80;1.70;;;25.40;94.10;;;;;;5029756;28;20469;-71
2022/08/24 09:24:58;;;;;;;2.30;1.67;;;25.60;92.60;;;;;;5028596;28;20465;-71
2022/08/24 09:27:36;;;;;;;1.77;1.67;;;25.70;92.20;;;;;;5029974;28;20488;-71
2022/08/24 09:30:10;;;;;;;2.37;2.07;;;25.70;91.50;;;;;;5030696;28;20945;-71
2022/08/24 09:32:59;;;;;;;1.90;1.70;;;25.70;91.20;;;;;;5029933;28;20460;-70
2022/08/24 09:35:33;;;;;;;1.80;1.70;;;25.60;91.70;;;;;;5026855;28;20484;-71
2022/08/24 09:38:07;;;;;;;3.20;1.70;;;25.50;93.00;;;;;;5025415;28;20903;-69
2022/08/24 09:40:44;;;;;;;2.07;1.87;;;25.60;93.40;;;;;;5029725;28;20471;-69
2022/08/24 09:43:46;;;;;;;1.60;1.50;;;25.70;92.40;;;;;;5029644;28;20471;-69
2022/08/24 09:46:45;;;;;;;2.03;1.83;;;25.80;90.60;;;;;;5010040;28;20468;-71
2022/08/24 09:49:45;;;;;;;1.90;1.80;;;25.90;92.00;;;;;;5025994;28;20980;-71
2022/08/24 09:52:56;;;;;;;2.40;1.63;;;26.10;90.70;;;;;;5030120;28;20507;-70
2022/08/24 09:55:51;;;;;;;1.87;1.77;;;26.20;92.10;;;;;;4988183;28;21019;-68
2022/08/24 10:00:50;;;;;;;2.10;1.90;;;26.50;91.70;;;;;;5011190;28;21008;-67
2022/08/24 10:03:39;;;;;;;2.03;1.83;;;26.70;91.80;;;;;;5013382;28;20782;-67
2022/08/24 10:06:22;;;;;;;2.90;2.20;;;26.90;92.30;;;;;;4994622;28;20462;-67
2022/08/24 10:09:02;;;;;;;1.93;1.83;;;27.10;91.80;;;;;;5004268;28;20493;-66
2022/08/24 10:11:41;;;;;;;3.43;2.20;;;27.20;92.30;;;;;;5014230;28;20540;-66
2022/08/24 10:14:15;;;;;;;1.60;1.50;;;27.40;91.60;;;;;;5011050;28;20465;-67
2022/08/24 10:16:49;;;;;;;1.80;1.47;;;27.50;90.90;;;;;;5014032;28;20492;-67
2022/08/24 10:19:45;;;;;;;2.37;2.10;;;27.60;90.90;;;;;;5012694;28;20458;-67
2022/08/24 10:22:20;;;;;;;2.00;1.80;;;27.80;91.30;;;;;;5012641;28;20465;-65
2022/08/24 10:25:03;;;;;;;2.63;2.30;;;27.90;91.60;;;;;;5009806;28;20465;-67
2022/08/24 10:27:49;;;;;;;2.07;1.83;;;28.00;90.50;;;;;;5010963;28;20486;-65
2022/08/24 10:30:39;;;;;;;2.47;1.90;;;28.10;90.90;;;;;;4993123;28;20458;-65
2022/08/24 10:33:17;;;;;;;2.53;2.10;;;28.10;90.50;;;;;;4993144;28;20463;-67
2022/08/24 10:36:02;;;;;;;2.23;1.87;;;28.20;90.70;;;;;;5011663;28;20477;-67
2022/08/24 10:42:02;;;;;;;2.17;1.83;;;28.30;90.40;;;;;;5013133;28;20445;-67
2022/08/24 10:44:48;;;;;;;3.07;1.90;;;28.20;89.80;;;;;;5009837;28;20462;-66
2022/08/24 10:47:23;;;;;;;2.00;1.90;;;28.40;91.20;;;;;;5012152;28;20513;-66
2022/08/24 10:50:19;;;;;;;3.57;2.07;;;28.50;90.20;;;;;;5012561;28;20454;-67
2022/08/24 10:53:14;;;;;;;2.10;1.90;;;28.70;90.60;;;;;;5013220;28;20477;-67
2022/08/24 10:55:43;;;;;;;1.93;1.83;;;28.90;91.10;;;;;;5009221;28;20482;-67
2022/08/24 10:58:27;;;;;;;1.80;1.70;;;29.00;90.10;;;;;;5007907;28;20577;-67
2022/08/24 11:00:55;;;;;;;2.10;1.90;;;29.00;90.00;;;;;;5009600;28;20907;-67
2022/08/24 11:03:25;;;;;;;2.00;1.73;;;29.10;90.10;;;;;;5008949;28;20458;-68
2022/08/24 11:05:55;;;;;;;1.70;1.60;;;29.10;90.00;;;;;;5009298;28;20508;-68
2022/08/24 11:08:24;;;;;;;1.73;1.63;;;29.20;90.20;;;;;;5008501;28;20500;-68
2022/08/24 11:11:08;;;;;;;2.37;1.63;;;29.10;89.30;;;;;;5011933;28;20457;-68
2022/08/24 11:13:36;;;;;;;1.93;1.83;;;29.10;87.50;;;;;;5010657;28;20524;-68
2022/08/24 11:16:06;;;;;;;2.17;1.97;;;29.00;88.50;;;;;;5012458;28;20562;-67
2022/08/24 11:18:49;;;;;;;3.00;1.97;;;29.10;89.30;;;;;;5008844;28;20563;-66
2022/08/24 11:21:33;;;;;;;2.10;1.87;;;29.10;90.10;;;;;;5011528;28;20496;-68
2022/08/24 11:24:06;;;;;;;2.07;1.87;;;29.20;90.40;;;;;;5010446;28;20516;-68
2022/08/24 11:26:50;;;;;;;2.30;2.10;;;29.30;90.50;;;;;;5011482;28;20466;-68
2022/08/24 11:29:17;;;;;;;2.63;1.70;;;29.50;89.20;;;;;;5008231;28;20457;-67
2022/08/24 11:31:49;;;;;;;1.80;1.67;;;29.60;85.80;;;;;;5011599;28;20539;-68
2022/08/24 11:34:18;;;;;;;1.80;1.60;;;29.70;86.70;;;;;;5008835;28;20504;-69
2022/08/24 11:36:45;;;;;;;2.03;1.90;;;29.70;86.40;;;;;;5011003;28;20532;-66
2022/08/24 11:39:20;;;;;;;1.73;1.63;;;29.70;86.90;;;;;;5008268;28;20494;-66
2022/08/24 11:41:58;;;;;;;2.20;2.00;;;29.80;87.40;;;;;;5010090;28;20516;-67
2022/08/24 11:44:39;;;;;;;2.10;1.90;;;29.80;86.70;;;;;;5009742;28;20462;-68
2022/08/24 11:47:22;;;;;;;1.77;1.67;;;29.80;87.70;;;;;;5010852;28;20462;-68
2022/08/24 11:49:58;;;;;;;2.30;1.80;;;29.90;82.60;;;;;;5010195;28;20949;-67
2022/08/24 11:52:35;;;;;;;1.90;1.80;;;30.00;85.60;;;;;;5012659;28;20497;-67
2022/08/24 11:55:08;;;;;;;2.17;1.70;;;30.10;87.30;;;;;;5009136;28;20462;-67
2022/08/24 11:57:41;;;;;;;2.00;1.90;;;30.20;86.00;;;;;;5009294;28;20493;-67
2022/08/24 12:00:12;;;;;;;2.17;1.97;;;30.30;86.40;;;;;;5011237;28;20968;-69
2022/08/24 12:02:47;;;;;;;1.70;1.60;;;30.40;85.20;;;;;;5013869;28;20843;-69
2022/08/24 12:05:24;;;;;;;1.57;1.47;;;30.30;80.10;;;;;;5009797;28;20535;-68
2022/08/24 12:08:02;;;;;;;1.70;1.60;;;30.30;80.10;;;;;;5009020;28;20482;-69
2022/08/24 12:10:37;;;;;;;1.80;1.70;;;30.40;81.10;;;;;;5011912;28;21067;-69
2022/08/24 12:13:12;;;;;;;3.80;1.93;;;30.40;81.20;;;;;;5011924;28;20954;-69
2022/08/24 12:15:45;;;;;;;1.70;1.57;;;30.50;81.00;;;;;;5009315;28;20464;-68
2022/08/24 12:18:24;;;;;;;1.60;1.50;;;30.80;82.40;;;;;;5009432;28;20486;-69
2022/08/24 12:20:52;;;;;;;2.30;1.70;;;31.00;80.70;;;;;;5010998;28;20901;-69
2022/08/24 12:23:25;;;;;;;1.67;1.57;;;31.10;80.90;;;;;;5010281;28;20822;-67
2022/08/24 12:26:02;;;;;;;1.40;1.30;;;31.20;77.90;;;;;;5010888;28;20973;-68
2022/08/24 12:28:35;;;;;;;1.70;1.60;;;31.30;78.20;;;;;;5015552;28;20509;-69
2022/08/24 12:31:09;;;;;;;1.90;1.60;;;31.30;79.20;;;;;;5011136;28;20835;-69
2022/08/24 12:33:38;;;;;;;1.60;1.50;;;31.40;76.50;;;;;;5007263;28;20465;-70
2022/08/24 12:36:13;;;;;;;1.73;1.63;;;31.30;77.40;;;;;;5009652;28;20488;-69
2022/08/24 12:38:44;;;;;;;1.40;1.30;;;31.20;78.20;;;;;;5008724;28;20480;-69
2022/08/24 12:41:17;;;;;;;2.20;1.80;;;31.10;75.40;;;;;;5010275;28;20462;-69
2022/08/24 12:43:49;;;;;;;1.77;1.67;;;31.00;79.60;;;;;;5007065;28;20473;-69
2022/08/24 12:46:20;;;;;;;2.27;2.00;;;31.10;78.70;;;;;;5010433;28;20466;-69
2022/08/24 12:48:53;;;;;;;1.90;1.80;;;31.20;77.80;;;;;;5008294;28;20569;-69
2022/08/24 12:51:27;;;;;;;1.57;1.47;;;31.30;79.60;;;;;;5010568;28;20810;-68
2022/08/24 12:54:07;;;;;;;1.40;1.30;;;31.40;78.20;;;;;;5008188;28;20469;-69
2022/08/24 12:56:52;;;;;;;1.37;1.27;;;31.40;76.50;;;;;;5010035;28;20493;-69
2022/08/24 12:59:24;;;;;;;1.70;1.60;;;31.30;75.50;;;;;;5007732;28;20935;-69
2022/08/24 13:01:59;;;;;;;1.60;1.50;;;31.40;77.20;;;;;;5010135;28;21005;-71
2022/08/24 13:04:37;;;;;;;1.97;1.77;;;31.30;76.70;;;;;;5006376;28;20907;-68
2022/08/24 13:07:09;;;;;;;2.53;1.60;;;31.30;76.50;;;;;;5009574;28;20468;-69
2022/08/24 13:09:38;;;;;;;2.10;1.90;;;31.40;79.20;;;;;;5002872;28;20462;-70
2022/08/24 13:12:43;;;;;;;1.77;1.63;;;31.40;77.70;;;;;;4998246;28;21076;-71
2022/08/24 13:15:56;;;;;;;1.70;1.60;;;31.50;78.80;;;;;;4996535;28;20516;-69
2022/08/24 13:19:05;;;;;;;1.67;1.57;;;31.50;77.40;;;;;;4993641;28;21005;-69
2022/08/24 13:21:51;;;;;;;1.83;1.50;;;31.70;78.60;;;;;;4999478;28;20996;-69